createdAt,value
2018-08-03T00:01:25.928Z,95218.62
2018-08-03T00:03:52.565Z,95218.28
2018-08-03T00:06:19.270Z,95216.72
2018-08-03T00:08:45.903Z,95207.72
2018-08-03T00:11:12.572Z,95206.96
2018-08-03T00:13:39.216Z,95208.35
2018-08-03T00:16:05.855Z,95212.53
2018-08-03T00:18:32.535Z,95203.80
2018-08-03T00:20:59.145Z,95198.61
2018-08-03T00:23:25.770Z,95205.15
2018-08-03T00:25:52.419Z,95204.73
2018-08-03T00:28:22.346Z,95197.02
2018-08-03T00:30:49.029Z,95202.36
2018-08-03T00:33:15.680Z,95201.28
2018-08-03T00:35:42.436Z,95196.26
2018-08-03T00:38:12.072Z,95199.31
2018-08-03T00:40:38.706Z,95200.55
2018-08-03T00:43:05.362Z,95194.75
2018-08-03T00:45:32.018Z,95200.17
2018-08-03T00:47:58.699Z,95203.12
2018-08-03T00:50:25.340Z,95207.20
2018-08-03T00:52:51.975Z,95201.40
2018-08-03T00:55:18.635Z,95201.47
2018-08-03T00:57:45.272Z,95205.64
2018-08-03T01:00:11.966Z,95209.68
2018-08-03T01:02:38.598Z,95210.78
2018-08-03T01:05:05.297Z,95209.36
2018-08-03T01:07:31.929Z,95211.45
2018-08-03T01:09:58.563Z,95212.41
2018-08-03T01:12:25.202Z,95211.28
2018-08-03T01:14:51.875Z,95214.76
2018-08-03T01:17:18.543Z,95221.09
2018-08-03T01:19:45.186Z,95215.52
2018-08-03T01:22:11.793Z,95216.36
2018-08-03T01:24:38.443Z,95220.28
2018-08-03T01:27:05.076Z,95218.51
2018-08-03T01:29:31.766Z,95216.30
2018-08-03T01:31:58.459Z,95215.25
2018-08-03T01:34:25.090Z,95215.02
2018-08-03T01:36:51.718Z,95212.49
2018-08-03T01:39:18.374Z,95221.61
2018-08-03T01:41:45.015Z,95213.92
2018-08-03T01:44:11.661Z,95212.73
2018-08-03T01:46:38.334Z,95214.64
2018-08-03T01:49:04.978Z,95213.36
2018-08-03T01:51:31.608Z,95217.55
2018-08-03T01:53:58.253Z,95214.82
2018-08-03T01:56:24.984Z,95220.45
2018-08-03T01:58:51.624Z,95216.09
2018-08-03T02:01:18.324Z,95223.02
2018-08-03T02:03:45.002Z,95220.83
2018-08-03T02:06:11.643Z,95228.27
2018-08-03T02:08:38.272Z,95229.56
2018-08-03T02:11:04.915Z,95229.91
2018-08-03T02:13:31.549Z,95212.67
2018-08-03T02:16:00.479Z,95221.93
2018-08-03T02:18:24.876Z,95223.23
2018-08-03T02:20:51.513Z,95221.41
2018-08-03T02:23:18.150Z,95221.30
2018-08-03T02:25:44.813Z,95223.00
2018-08-03T02:28:11.452Z,95225.85
2018-08-03T02:30:38.091Z,95230.09
2018-08-03T02:33:04.727Z,95238.23
2018-08-03T02:35:31.369Z,95239.20
2018-08-03T02:37:57.998Z,95237.96
2018-08-03T02:40:24.691Z,95229.45
2018-08-03T02:42:51.436Z,95232.99
2018-08-03T02:45:18.122Z,95233.05
2018-08-03T02:47:44.768Z,95235.80
2018-08-03T02:50:11.396Z,95237.55
2018-08-03T02:52:38.568Z,95239.67
2018-08-03T02:55:05.203Z,95236.61
2018-08-03T02:57:31.846Z,95239.34
2018-08-03T02:59:58.557Z,95240.86
2018-08-03T03:02:25.210Z,95236.24
2018-08-03T03:04:51.843Z,95239.66
2018-08-03T03:07:18.516Z,95237.11
2018-08-03T03:09:45.132Z,95245.03
2018-08-03T03:12:11.832Z,95242.25
2018-08-03T03:14:38.517Z,95245.33
2018-08-03T03:17:05.160Z,95243.95
2018-08-03T03:19:31.847Z,95249.09
2018-08-03T03:21:58.482Z,95248.57
2018-08-03T03:24:25.130Z,95244.82
2018-08-03T03:26:51.804Z,95251.01
2018-08-03T03:29:18.486Z,95247.23
2018-08-03T03:31:45.179Z,95249.42
2018-08-03T03:34:11.827Z,95251.20
2018-08-03T03:36:38.464Z,95251.64
2018-08-03T03:39:05.116Z,95254.67
2018-08-03T03:41:31.891Z,95256.60
2018-08-03T03:43:58.525Z,95263.03
2018-08-03T03:46:25.194Z,95260.19
2018-08-03T03:48:51.886Z,95263.49
2018-08-03T03:51:18.585Z,95257.09
2018-08-03T03:53:45.222Z,95260.17
2018-08-03T03:56:11.861Z,95271.34
2018-08-03T03:58:38.499Z,95269.89
2018-08-03T04:01:05.184Z,95275.09
2018-08-03T04:03:31.782Z,95270.60
2018-08-03T04:05:58.446Z,95272.61
2018-08-03T04:08:25.078Z,95281.00
2018-08-03T04:10:51.771Z,95285.84
2018-08-03T04:13:18.359Z,95288.81
2018-08-03T04:15:45.033Z,95288.63
2018-08-03T04:18:11.672Z,95287.39
2018-08-03T04:20:38.370Z,95290.82
2018-08-03T04:23:05.012Z,95288.36
2018-08-03T04:25:31.675Z,95287.42
2018-08-03T04:27:58.300Z,95288.41
2018-08-03T04:30:24.957Z,95284.79
2018-08-03T04:32:51.595Z,95286.40
2018-08-03T04:35:18.224Z,95292.94
2018-08-03T04:37:44.874Z,95295.27
2018-08-03T04:40:11.543Z,95296.69
2018-08-03T04:42:38.237Z,95299.20
2018-08-03T04:45:04.817Z,95301.80
2018-08-03T04:47:31.466Z,95303.02
2018-08-03T04:49:58.104Z,95299.69
2018-08-03T04:52:24.838Z,95303.48
2018-08-03T04:54:54.732Z,95299.20
2018-08-03T04:57:22.315Z,95301.91
2018-08-03T04:59:48.930Z,95310.55
2018-08-03T05:02:15.564Z,95303.95
2018-08-03T05:04:42.278Z,95301.27
2018-08-03T05:07:08.901Z,95301.03
2018-08-03T05:09:35.539Z,95314.20
2018-08-03T05:12:02.266Z,95316.09
2018-08-03T05:14:28.935Z,95311.05
2018-08-03T05:16:55.644Z,95312.34
2018-08-03T05:19:22.406Z,95313.95
2018-08-03T05:21:49.098Z,95325.12
2018-08-03T05:24:15.769Z,95318.41
2018-08-03T05:26:42.397Z,95328.92
2018-08-03T05:29:09.034Z,95316.78
2018-08-03T05:31:35.664Z,95323.75
2018-08-03T05:34:02.385Z,95327.66
2018-08-03T05:36:29.032Z,95326.91
2018-08-03T05:38:55.658Z,95324.05
2018-08-03T05:41:22.329Z,95321.58
2018-08-03T05:43:48.937Z,95326.21
2018-08-03T05:46:15.574Z,95321.53
2018-08-03T05:48:42.248Z,95327.75
2018-08-03T05:51:08.875Z,95329.20
2018-08-03T05:53:35.528Z,95332.29
2018-08-03T05:56:02.212Z,95326.02
2018-08-03T05:58:28.891Z,95323.87
2018-08-03T06:00:55.499Z,95315.38
2018-08-03T06:03:22.140Z,95317.70
2018-08-03T06:05:48.775Z,95315.30
2018-08-03T06:08:15.529Z,95316.45
2018-08-03T06:10:42.068Z,95319.08
2018-08-03T06:13:08.708Z,95305.99
2018-08-03T06:15:35.351Z,95325.41
2018-08-03T06:18:01.994Z,95321.43
2018-08-03T06:20:28.670Z,95326.66
2018-08-03T06:22:55.326Z,95323.87
2018-08-03T06:25:21.965Z,95317.96
2018-08-03T06:27:48.609Z,95325.25
2018-08-03T06:30:15.416Z,95320.75
2018-08-03T06:32:42.192Z,95316.02
2018-08-03T06:35:08.885Z,95324.77
2018-08-03T06:37:35.571Z,95329.53
2018-08-03T06:40:02.205Z,95322.62
2018-08-03T06:42:30.244Z,95320.64
2018-08-03T06:44:55.556Z,95327.19
2018-08-03T06:47:22.222Z,95322.68
2018-08-03T06:49:48.885Z,95323.05
2018-08-03T06:52:15.521Z,95321.08
2018-08-03T06:54:42.156Z,95324.23
2018-08-03T06:57:08.831Z,95323.92
2018-08-03T06:59:35.476Z,95318.66
2018-08-03T07:02:02.173Z,95326.27
2018-08-03T07:04:28.848Z,95323.27
2018-08-03T07:06:55.483Z,95328.16
2018-08-03T07:09:23.324Z,95327.84
2018-08-03T07:11:50.166Z,95328.52
2018-08-03T07:14:16.815Z,95327.23
2018-08-03T07:16:43.503Z,95334.06
2018-08-03T07:19:10.194Z,95336.16
2018-08-03T07:21:36.847Z,95330.13
2018-08-03T07:24:03.483Z,95336.36
2018-08-03T07:26:30.131Z,95334.33
2018-08-03T07:28:56.782Z,95327.94
2018-08-03T07:31:23.430Z,95329.07
2018-08-03T07:33:50.073Z,95326.42
2018-08-03T07:36:16.745Z,95332.33
2018-08-03T07:38:43.395Z,95331.16
2018-08-03T07:41:10.039Z,95327.30
2018-08-03T07:43:36.773Z,95331.80
2018-08-03T07:46:03.354Z,95331.80
2018-08-03T07:48:29.999Z,95332.88
2018-08-03T07:50:56.672Z,95335.28
2018-08-03T07:53:23.311Z,95324.70
2018-08-03T07:55:49.951Z,95335.42
2018-08-03T07:58:16.627Z,95338.75
2018-08-03T08:00:43.289Z,95340.44
2018-08-03T08:03:10.035Z,95334.97
2018-08-03T08:05:36.707Z,95328.14
2018-08-03T08:08:03.357Z,95336.25
2018-08-03T08:10:30.026Z,95330.67
2018-08-03T08:12:56.718Z,95339.10
2018-08-03T08:15:23.356Z,95333.08
2018-08-03T08:17:50.095Z,95335.99
2018-08-03T08:20:16.715Z,95332.30
2018-08-03T08:22:43.343Z,95338.08
2018-08-03T08:25:10.040Z,95335.23
2018-08-03T08:27:36.759Z,95332.12
2018-08-03T08:30:03.414Z,95331.59
2018-08-03T08:32:30.065Z,95323.10
2018-08-03T08:34:56.715Z,95324.44
2018-08-03T08:37:23.377Z,95322.58
2018-08-03T08:39:50.043Z,95325.73
2018-08-03T08:42:16.675Z,95318.58
2018-08-03T08:44:43.365Z,95316.06
2018-08-03T08:47:10.099Z,95318.69
2018-08-03T08:49:36.763Z,95318.70
2018-08-03T08:52:03.461Z,95316.19
2018-08-03T08:54:30.092Z,95312.53
2018-08-03T08:56:56.872Z,95314.45
2018-08-03T08:59:23.559Z,95310.17
2018-08-03T09:01:50.273Z,95314.03
2018-08-03T09:04:16.934Z,95317.75
2018-08-03T09:06:43.573Z,95314.78
2018-08-03T09:09:10.303Z,95316.61
2018-08-03T09:11:36.912Z,95312.68
2018-08-03T09:14:03.550Z,95312.05
2018-08-03T09:16:31.394Z,95311.98
2018-08-03T09:18:58.004Z,95307.36
2018-08-03T09:21:24.697Z,95305.06
2018-08-03T09:23:51.387Z,95309.77
2018-08-03T09:26:17.995Z,95309.25
2018-08-03T09:28:44.632Z,95305.53
2018-08-03T09:31:11.271Z,95298.73
2018-08-03T09:33:37.952Z,95300.34
2018-08-03T09:36:04.627Z,95303.17
2018-08-03T09:38:31.264Z,95299.44
2018-08-03T09:40:57.966Z,95306.39
2018-08-03T09:43:24.641Z,95293.24
2018-08-03T09:45:51.289Z,95302.17
2018-08-03T09:48:17.937Z,95280.78
2018-08-03T09:50:44.571Z,95300.24
2018-08-03T09:53:11.235Z,95298.36
2018-08-03T09:55:38.022Z,95292.14
2018-08-03T09:58:04.673Z,95285.95
2018-08-03T10:00:31.383Z,95295.14
2018-08-03T10:02:58.020Z,95286.22
2018-08-03T10:05:24.655Z,95286.02
2018-08-03T10:07:51.323Z,95283.05
2018-08-03T10:10:17.947Z,95286.45
2018-08-03T10:12:44.663Z,95284.87
2018-08-03T10:15:11.291Z,95281.67
2018-08-03T10:17:37.921Z,95283.81
2018-08-03T10:20:04.737Z,95284.23
2018-08-03T10:22:31.483Z,95278.77
2018-08-03T10:24:58.065Z,95276.30
2018-08-03T10:27:24.762Z,95276.52
2018-08-03T10:29:51.402Z,95273.33
2018-08-03T10:32:18.090Z,95274.72
2018-08-03T10:34:44.765Z,95268.48
2018-08-03T10:37:13.710Z,95271.00
2018-08-03T10:39:40.371Z,95263.38
2018-08-03T10:42:07.011Z,95262.68
2018-08-03T10:44:33.750Z,95258.97
2018-08-03T10:47:00.384Z,95255.47
2018-08-03T10:49:27.000Z,95256.70
2018-08-03T10:51:53.687Z,95245.89
2018-08-03T10:54:20.324Z,95248.91
2018-08-03T10:56:47.029Z,95238.89
2018-08-03T10:59:13.671Z,95242.84
2018-08-03T11:01:40.370Z,95239.53
2018-08-03T11:04:07.038Z,95239.62
2018-08-03T11:06:33.743Z,95238.08
2018-08-03T11:09:00.440Z,95237.85
2018-08-03T11:11:27.141Z,95235.94
2018-08-03T11:13:53.864Z,95244.68
2018-08-03T11:16:20.446Z,95239.42
2018-08-03T11:18:47.148Z,95235.55
2018-08-03T11:21:13.860Z,95238.56
2018-08-03T11:23:40.497Z,95244.55
2018-08-03T11:26:07.196Z,95236.17
2018-08-03T11:28:33.834Z,95232.44
2018-08-03T11:31:00.481Z,95237.08
2018-08-03T11:33:27.177Z,95238.88
2018-08-03T11:35:53.858Z,95240.94
2018-08-03T11:38:20.461Z,95230.17
2018-08-03T11:40:47.164Z,95232.16
2018-08-03T11:43:14.857Z,95226.05
2018-08-03T11:45:41.500Z,95232.06
2018-08-03T11:48:08.205Z,95233.08
2018-08-03T11:50:34.808Z,95228.81
2018-08-03T11:53:01.527Z,95226.47
2018-08-03T11:55:28.213Z,95230.65
2018-08-03T11:57:54.856Z,95211.98
2018-08-03T12:00:21.547Z,95220.16
2018-08-03T12:02:48.233Z,95219.02
2018-08-03T12:05:14.896Z,95217.84
2018-08-03T12:07:42.642Z,95220.22
2018-08-03T12:10:09.284Z,95202.06
2018-08-03T12:12:36.054Z,95206.92
2018-08-03T12:15:02.687Z,95208.69
2018-08-03T12:17:29.396Z,95199.51
2018-08-03T12:19:56.055Z,95197.94
2018-08-03T12:22:22.699Z,95198.69
2018-08-03T12:24:49.340Z,95201.86
2018-08-03T12:27:15.976Z,95198.89
2018-08-03T12:29:42.610Z,95204.02
2018-08-03T12:32:09.326Z,95201.91
2018-08-03T12:34:36.059Z,95192.88
2018-08-03T12:37:02.773Z,95185.02
2018-08-03T12:39:30.502Z,95191.56
2018-08-03T12:41:57.142Z,95184.01
2018-08-03T12:44:23.927Z,95183.95
2018-08-03T12:46:50.621Z,95190.80
2018-08-03T12:49:17.248Z,95180.86
2018-08-03T12:51:43.945Z,95181.78
2018-08-03T12:54:10.642Z,95184.44
2018-08-03T12:56:37.358Z,95187.58
2018-08-03T12:59:03.970Z,95179.66
2018-08-03T13:01:30.605Z,95182.77
2018-08-03T13:03:57.250Z,95183.30
2018-08-03T13:06:23.888Z,95186.76
2018-08-03T13:08:50.566Z,95181.66
2018-08-03T13:11:17.199Z,95181.77
2018-08-03T13:13:43.868Z,95181.52
2018-08-03T13:16:10.523Z,95177.03
2018-08-03T13:18:37.180Z,95176.19
2018-08-03T13:21:04.207Z,95174.88
2018-08-03T13:23:30.894Z,95173.17
2018-08-03T13:25:57.697Z,95168.76
2018-08-03T13:28:24.356Z,95171.13
2018-08-03T13:30:50.998Z,95179.09
2018-08-03T13:33:18.158Z,95185.33
2018-08-03T13:35:44.757Z,95173.52
2018-08-03T13:38:11.395Z,95181.88
2018-08-03T13:40:38.078Z,95165.20
2018-08-03T13:43:04.765Z,95168.26
2018-08-03T13:45:31.370Z,95177.70
2018-08-03T13:47:58.081Z,95168.12
2018-08-03T13:50:24.898Z,95175.77
2018-08-03T13:52:51.522Z,95169.80
2018-08-03T13:55:18.160Z,95168.72
2018-08-03T13:57:44.850Z,95163.98
2018-08-03T14:00:11.543Z,95165.19
2018-08-03T14:02:38.180Z,95166.56
2018-08-03T14:05:04.931Z,95166.88
2018-08-03T14:07:31.788Z,95162.43
2018-08-03T14:09:58.436Z,95155.98
2018-08-03T14:12:25.173Z,95154.31
2018-08-03T14:14:51.837Z,95159.25
2018-08-03T14:17:18.533Z,95158.72
2018-08-03T14:19:45.251Z,95159.39
2018-08-03T14:22:12.168Z,95149.92
2018-08-03T14:24:38.776Z,95157.08
2018-08-03T14:27:05.415Z,95154.01
2018-08-03T14:29:32.107Z,95155.42
2018-08-03T14:32:01.577Z,95157.88
2018-08-03T14:34:28.272Z,95150.13
2018-08-03T14:36:54.896Z,95147.08
2018-08-03T14:39:21.551Z,95143.22
2018-08-03T14:41:48.195Z,95141.22
2018-08-03T14:44:14.869Z,95143.38
2018-08-03T14:46:41.562Z,95135.50
2018-08-03T14:49:08.186Z,95134.03
2018-08-03T14:51:34.833Z,95141.38
2018-08-03T14:54:01.519Z,95137.56
2018-08-03T14:56:28.120Z,95140.22
2018-08-03T14:58:54.774Z,95133.40
2018-08-03T15:01:21.431Z,95137.81
2018-08-03T15:03:48.078Z,95137.77
2018-08-03T15:06:16.140Z,95125.30
2018-08-03T15:08:41.422Z,95135.69
2018-08-03T15:11:08.071Z,95145.54
2018-08-03T15:13:34.726Z,95139.20
2018-08-03T15:16:01.370Z,95151.48
2018-08-03T15:18:27.996Z,95147.40
2018-08-03T15:20:54.638Z,95148.28
2018-08-03T15:23:21.278Z,95145.94
2018-08-03T15:25:48.023Z,95142.33
2018-08-03T15:28:14.655Z,95145.25
2018-08-03T15:30:41.306Z,95139.23
2018-08-03T15:33:07.927Z,95148.48
2018-08-03T15:35:34.574Z,95151.26
2018-08-03T15:38:01.215Z,95154.66
2018-08-03T15:40:27.975Z,95150.84
2018-08-03T15:42:54.616Z,95151.61
2018-08-03T15:45:21.255Z,95154.23
2018-08-03T15:47:47.897Z,95160.95
2018-08-03T15:50:14.545Z,95162.48
2018-08-03T15:52:41.250Z,95157.03
2018-08-03T15:55:07.825Z,95159.88
2018-08-03T15:57:34.458Z,95157.94
2018-08-03T16:00:01.134Z,95154.02
2018-08-03T16:02:27.754Z,95160.52
2018-08-03T16:04:54.380Z,95162.94
2018-08-03T16:07:21.041Z,95163.08
2018-08-03T16:09:47.863Z,95166.11
2018-08-03T16:12:14.467Z,95166.74
2018-08-03T16:14:41.104Z,95171.95
2018-08-03T16:17:07.744Z,95176.77
2018-08-03T16:19:34.378Z,95172.03
2018-08-03T16:22:01.084Z,95173.92
2018-08-03T16:24:27.755Z,95177.95
2018-08-03T16:26:54.364Z,95177.41
2018-08-03T16:29:21.008Z,95176.59
2018-08-03T16:31:47.669Z,95173.02
2018-08-03T16:34:14.305Z,95177.78
2018-08-03T16:36:40.956Z,95179.56
2018-08-03T16:39:10.683Z,95184.84
2018-08-03T16:41:37.372Z,95179.88
2018-08-03T16:44:04.014Z,95181.04
2018-08-03T16:46:30.617Z,95176.33
2018-08-03T16:48:57.270Z,95173.80
2018-08-03T16:51:23.921Z,95174.45
2018-08-03T16:53:50.552Z,95170.33
2018-08-03T16:56:17.192Z,95175.69
2018-08-03T16:58:43.825Z,95167.77
2018-08-03T17:01:10.460Z,95175.63
2018-08-03T17:03:37.106Z,95176.13
2018-08-03T17:06:03.745Z,95188.23
2018-08-03T17:08:30.389Z,95181.81
2018-08-03T17:10:57.030Z,95183.34
2018-08-03T17:13:23.696Z,95179.72
2018-08-03T17:15:50.318Z,95177.56
2018-08-03T17:18:16.954Z,95186.65
2018-08-03T17:20:43.595Z,95180.93
2018-08-03T17:23:10.229Z,95186.71
2018-08-03T17:25:36.869Z,95185.87
2018-08-03T17:28:03.521Z,95189.23
2018-08-03T17:30:30.147Z,95194.30
2018-08-03T17:32:56.792Z,95196.20
2018-08-03T17:35:23.435Z,95195.80
2018-08-03T17:37:50.075Z,95189.79
2018-08-03T17:40:16.718Z,95197.56
2018-08-03T17:42:43.388Z,95204.15
2018-08-03T17:45:09.989Z,95207.73
2018-08-03T17:47:37.332Z,95211.75
2018-08-03T17:50:04.006Z,95210.03
2018-08-03T17:52:30.662Z,95206.92
2018-08-03T17:54:57.330Z,95211.29
2018-08-03T17:57:23.932Z,95214.23
2018-08-03T17:59:50.611Z,95216.48
2018-08-03T18:02:17.250Z,95211.59
2018-08-03T18:04:43.886Z,95210.34
2018-08-03T18:07:10.523Z,95214.13
2018-08-03T18:09:37.160Z,95214.83
2018-08-03T18:12:03.797Z,95216.51
2018-08-03T18:14:30.469Z,95219.08
2018-08-03T18:16:57.071Z,95221.87
2018-08-03T18:19:23.712Z,95218.23
2018-08-03T18:21:50.390Z,95228.76
2018-08-03T18:24:16.997Z,95228.63
2018-08-03T18:26:43.633Z,95244.14
2018-08-03T18:29:10.342Z,95249.34
2018-08-03T18:31:36.910Z,95250.54
2018-08-03T18:34:03.547Z,95252.03
2018-08-03T18:36:30.188Z,95255.54
2018-08-03T18:38:56.872Z,95257.92
2018-08-03T18:41:23.462Z,95256.15
2018-08-03T18:43:50.146Z,95261.55
2018-08-03T18:46:16.818Z,95258.13
2018-08-03T18:48:43.419Z,95268.82
2018-08-03T18:51:10.047Z,95258.44
2018-08-03T18:53:36.726Z,95260.02
2018-08-03T18:56:03.377Z,95268.00
2018-08-03T18:58:30.067Z,95262.19
2018-08-03T19:00:56.702Z,95263.49
2018-08-03T19:03:23.339Z,95264.88
2018-08-03T19:05:49.978Z,95265.11
2018-08-03T19:08:16.623Z,95262.96
2018-08-03T19:10:43.260Z,95259.34
2018-08-03T19:13:09.911Z,95260.98
2018-08-03T19:15:36.604Z,95264.66
2018-08-03T19:18:03.185Z,95268.49
2018-08-03T19:20:29.822Z,95267.98
2018-08-03T19:22:56.471Z,95272.81
2018-08-03T19:25:23.097Z,95275.43
2018-08-03T19:27:49.734Z,95274.30
2018-08-03T19:30:16.384Z,95281.04
2018-08-03T19:32:43.020Z,95279.05
2018-08-03T19:35:09.689Z,95280.45
2018-08-03T19:37:36.327Z,95280.25
2018-08-03T19:40:02.978Z,95278.02
2018-08-03T19:42:29.613Z,95282.92
2018-08-03T19:44:56.260Z,95278.33
2018-08-03T19:47:22.943Z,95283.17
2018-08-03T19:49:49.595Z,95279.98
2018-08-03T19:52:16.246Z,95273.82
2018-08-03T19:54:42.889Z,95273.30
2018-08-03T19:57:09.535Z,95279.80
2018-08-03T19:59:36.180Z,95278.67
2018-08-03T20:02:02.815Z,95270.20
2018-08-03T20:04:29.511Z,95271.25
2018-08-03T20:06:56.158Z,95269.14
2018-08-03T20:09:22.793Z,95271.72
2018-08-03T20:11:49.436Z,95276.39
2018-08-03T20:14:16.070Z,95274.62
2018-08-03T20:16:42.737Z,95282.78
2018-08-03T20:19:09.418Z,95278.94
2018-08-03T20:21:36.058Z,95275.16
2018-08-03T20:24:02.743Z,95273.12
2018-08-03T20:26:29.393Z,95275.53
2018-08-03T20:28:56.023Z,95282.30
2018-08-03T20:31:22.699Z,95280.10
2018-08-03T20:33:49.339Z,95287.35
2018-08-03T20:36:15.993Z,95289.42
2018-08-03T20:38:42.681Z,95293.72
2018-08-03T20:41:09.321Z,95296.54
2018-08-03T20:43:36.030Z,95288.23
2018-08-03T20:46:02.681Z,95285.66
2018-08-03T20:48:30.662Z,95286.34
2018-08-03T20:50:55.973Z,95287.81
2018-08-03T20:53:22.630Z,95283.30
2018-08-03T20:55:49.288Z,95284.89
2018-08-03T20:58:15.980Z,95287.81
2018-08-03T21:00:42.592Z,95290.30
2018-08-03T21:03:09.249Z,95299.23
2018-08-03T21:05:35.910Z,95296.63
2018-08-03T21:08:02.782Z,95293.08
2018-08-03T21:10:29.433Z,95289.63
2018-08-03T21:12:56.086Z,95296.80
2018-08-03T21:15:22.755Z,95297.41
2018-08-03T21:17:49.413Z,95298.63
2018-08-03T21:20:16.133Z,95298.83
2018-08-03T21:22:42.773Z,95296.78
2018-08-03T21:25:09.427Z,95305.45
2018-08-03T21:27:36.090Z,95298.66
2018-08-03T21:30:02.798Z,95293.97
2018-08-03T21:32:29.414Z,95287.50
2018-08-03T21:34:56.053Z,95291.13
2018-08-03T21:37:22.715Z,95282.56
2018-08-03T21:39:49.389Z,95297.80
2018-08-03T21:42:16.084Z,95307.33
2018-08-03T21:44:42.742Z,95300.11
2018-08-03T21:47:09.419Z,95298.11
2018-08-03T21:49:36.078Z,95300.09
2018-08-03T21:52:02.770Z,95297.87
2018-08-03T21:54:29.510Z,95304.20
2018-08-03T21:56:56.148Z,95300.33
2018-08-03T21:59:22.842Z,95300.09
2018-08-03T22:01:49.499Z,95303.59
2018-08-03T22:04:16.197Z,95305.52
2018-08-03T22:06:42.862Z,95306.37
2018-08-03T22:09:09.557Z,95305.73
2018-08-03T22:11:36.213Z,95307.31
2018-08-03T22:14:02.903Z,95304.16
2018-08-03T22:16:29.555Z,95301.51
2018-08-03T22:18:56.245Z,95308.28
2018-08-03T22:21:22.852Z,95304.61
2018-08-03T22:23:49.496Z,95308.21
2018-08-03T22:26:16.175Z,95309.34
2018-08-03T22:28:42.823Z,95310.58
2018-08-03T22:31:09.474Z,95314.55
2018-08-03T22:33:36.135Z,95308.03
2018-08-03T22:36:02.792Z,95310.95
2018-08-03T22:38:29.451Z,95310.05
2018-08-03T22:40:56.094Z,95306.52
2018-08-03T22:43:22.746Z,95304.23
2018-08-03T22:45:49.455Z,95305.73
2018-08-03T22:48:16.109Z,95304.67
2018-08-03T22:50:42.772Z,95300.12
2018-08-03T22:53:09.437Z,95296.58
2018-08-03T22:55:36.095Z,95295.56
2018-08-03T22:58:02.826Z,95288.75
2018-08-03T23:00:29.490Z,95295.12
2018-08-03T23:02:56.181Z,95291.84
2018-08-03T23:05:22.796Z,95288.02
2018-08-03T23:07:49.538Z,95285.23
2018-08-03T23:10:16.169Z,95284.86
2018-08-03T23:12:42.813Z,95283.55
2018-08-03T23:15:09.476Z,95282.87
2018-08-03T23:17:36.124Z,95277.84
2018-08-03T23:20:02.780Z,95278.73
2018-08-03T23:22:29.435Z,95277.34
2018-08-03T23:24:56.149Z,95276.59
2018-08-03T23:27:22.838Z,95283.53
2018-08-03T23:29:49.553Z,95281.27
2018-08-03T23:32:16.213Z,95277.52
2018-08-03T23:34:42.862Z,95283.91
2018-08-03T23:37:09.527Z,95278.65
2018-08-03T23:39:37.234Z,95276.02
2018-08-03T23:42:03.948Z,95274.55
2018-08-03T23:44:30.704Z,95279.44
2018-08-03T23:46:57.412Z,95273.23
2018-08-03T23:49:24.113Z,95274.03
2018-08-03T23:51:50.823Z,95271.51
2018-08-03T23:54:17.488Z,95276.19
2018-08-03T23:56:44.170Z,95272.09
2018-08-03T23:59:10.789Z,95278.05
